createdAt,value
2018-06-27T14:56:13.768Z,53.70
2018-06-27T14:58:44.828Z,50.30
2018-06-27T15:01:16.024Z,51.80
2018-06-27T15:03:47.230Z,52.50
2018-06-27T15:06:18.263Z,52.50
2018-06-27T15:08:49.381Z,54.20
2018-06-27T15:13:52.156Z,53.40
2018-06-27T15:16:23.406Z,54.40
2018-06-27T15:18:54.345Z,56.00
2018-06-27T15:21:25.536Z,56.00
2018-06-27T15:23:56.735Z,57.70
2018-06-27T15:26:27.961Z,58.00
2018-06-27T15:28:59.179Z,59.60
2018-06-27T15:31:30.192Z,60.60
2018-06-27T15:34:01.106Z,61.00
2018-06-27T15:36:32.067Z,61.20
2018-06-27T15:39:03.449Z,60.20
2018-06-27T15:41:35.205Z,60.30
2018-06-27T15:44:07.500Z,59.40
2018-06-27T15:46:38.626Z,60.20
2018-06-27T15:51:42.189Z,61.60
2018-06-27T15:54:13.384Z,63.70
2018-06-27T15:56:44.709Z,63.10
2018-06-27T15:59:16.080Z,64.10
2018-06-27T16:01:47.332Z,64.20
2018-06-27T16:04:18.556Z,64.90
2018-06-27T16:06:49.729Z,64.40
2018-06-27T16:09:20.920Z,62.70
2018-06-27T16:14:22.953Z,61.60
2018-06-27T16:16:54.109Z,59.90
2018-06-27T16:19:25.084Z,58.90
2018-06-27T16:21:56.129Z,60.30
2018-06-27T16:24:27.455Z,61.20
2018-06-27T16:26:58.724Z,60.50
2018-06-27T16:29:30.005Z,58.60
2018-06-27T16:32:01.251Z,56.90
2018-06-27T16:34:32.272Z,57.10
2018-06-27T16:37:03.504Z,58.00
2018-06-27T16:39:34.657Z,55.40
2018-06-27T16:42:06.153Z,54.80
2018-06-27T16:44:37.895Z,54.50
2018-06-27T16:47:12.001Z,55.50
2018-06-27T16:49:43.957Z,56.20
2018-06-27T16:52:15.149Z,55.40
2018-06-27T16:54:46.466Z,56.20
2018-06-27T16:57:18.045Z,56.60
2018-06-27T16:59:49.267Z,56.10
2018-06-27T17:04:51.269Z,57.10
2018-06-27T17:51:43.028Z,58.20
2018-06-27T17:54:13.992Z,58.10
2018-06-27T17:56:45.191Z,58.50
2018-06-27T17:59:16.336Z,59.20
2018-06-27T18:01:47.524Z,60.50
2018-06-27T18:04:18.727Z,60.50
2018-06-27T18:06:50.173Z,61.50
2018-06-27T18:09:21.524Z,63.00
2018-06-27T18:11:52.730Z,64.00
2018-06-27T18:14:23.888Z,64.70
2018-06-27T18:16:55.103Z,65.00
2018-06-27T18:19:26.122Z,64.70
2018-06-27T18:21:57.348Z,64.50
2018-06-27T18:24:28.721Z,65.40
2018-06-27T18:27:00.148Z,66.20
2018-06-27T18:29:31.426Z,66.60
2018-06-27T18:32:02.457Z,67.00
2018-06-27T20:15:08.494Z,80.80
2018-06-27T20:17:39.664Z,85.20
2018-06-27T20:20:11.186Z,85.10
2018-06-27T20:22:42.934Z,85.70
2018-06-27T20:25:14.213Z,85.40
2018-06-27T20:27:45.189Z,85.90
2018-06-27T20:30:16.438Z,86.90
2018-06-27T20:32:47.622Z,87.00
2018-06-27T20:35:18.620Z,87.40
2018-06-27T20:37:49.881Z,89.10
2018-06-27T20:40:21.279Z,90.00
2018-06-27T20:42:52.367Z,90.60
2018-06-27T20:45:24.168Z,91.20
2018-06-27T20:47:55.414Z,92.10
2018-06-27T20:50:26.713Z,92.90
2018-06-27T20:52:57.678Z,94.20
2018-06-27T20:55:28.784Z,95.70
2018-06-27T20:58:00.265Z,96.70
2018-06-27T21:00:31.497Z,97.70
2018-06-27T21:03:02.499Z,98.80
2018-06-27T21:05:34.105Z,99.80
2018-06-27T21:08:05.440Z,99.90
2018-06-27T21:10:36.614Z,99.90
